createdAt,value
2023-04-09T00:01:53.510Z,1.88
2023-04-09T00:04:25.116Z,1.85
2023-04-09T00:06:56.276Z,1.83
2023-04-09T00:09:27.542Z,1.79
2023-04-09T00:11:57.322Z,1.78
2023-04-09T00:14:25.775Z,1.79
2023-04-09T00:16:54.930Z,1.80
2023-04-09T00:19:25.740Z,1.80
2023-04-09T00:21:54.297Z,1.81
2023-04-09T00:24:32.581Z,1.82
2023-04-09T00:27:01.272Z,1.82
2023-04-09T00:29:29.851Z,1.81
2023-04-09T00:31:58.674Z,1.81
2023-04-09T00:34:28.691Z,1.81
2023-04-09T00:37:09.372Z,1.84
2023-04-09T00:39:37.798Z,1.85
2023-04-09T00:42:06.422Z,1.84
2023-04-09T00:44:35.404Z,1.85
2023-04-09T00:47:04.669Z,1.85
2023-04-09T00:49:33.940Z,1.85
2023-04-09T00:52:02.505Z,1.84
2023-04-09T00:54:31.145Z,1.82
2023-04-09T00:57:00.996Z,1.80
2023-04-09T00:59:29.494Z,1.77
2023-04-09T01:01:58.347Z,1.78
2023-04-09T01:04:42.291Z,1.76
2023-04-09T01:07:20.730Z,1.76
2023-04-09T01:10:09.490Z,1.76
2023-04-09T01:12:54.353Z,1.74
2023-04-09T01:15:38.349Z,1.70
2023-04-09T01:18:15.659Z,1.65
2023-04-09T01:21:00.925Z,1.60
2023-04-09T01:23:55.182Z,1.56
2023-04-09T01:27:05.102Z,1.56
2023-04-09T01:29:51.898Z,1.56
2023-04-09T01:32:22.623Z,1.58
2023-04-09T01:34:58.543Z,1.58
2023-04-09T01:37:47.546Z,1.58
2023-04-09T01:40:33.810Z,1.58
2023-04-09T01:43:07.862Z,1.58
2023-04-09T01:45:36.710Z,1.60
2023-04-09T01:48:26.708Z,1.64
2023-04-09T01:51:00.032Z,1.71
2023-04-09T01:53:30.599Z,1.80
2023-04-09T01:56:02.450Z,1.86
2023-04-09T01:58:34.230Z,1.92
2023-04-09T02:01:16.107Z,1.98
2023-04-09T02:03:55.045Z,2.02
2023-04-09T02:06:30.177Z,2.04
2023-04-09T02:09:18.658Z,2.04
2023-04-09T02:11:58.477Z,2.02
2023-04-09T02:14:31.268Z,2.00
2023-04-09T02:17:01.601Z,1.97
2023-04-09T02:19:59.700Z,1.97
2023-04-09T02:22:34.195Z,1.98
2023-04-09T02:25:09.847Z,1.99
2023-04-09T02:27:41.388Z,2.02
2023-04-09T02:30:13.216Z,2.05
2023-04-09T02:32:42.342Z,2.12
2023-04-09T02:35:16.178Z,2.19
2023-04-09T02:37:57.444Z,2.26
2023-04-09T02:40:26.726Z,2.31
2023-04-09T02:42:58.342Z,2.36
2023-04-09T02:45:31.413Z,2.41
2023-04-09T02:48:03.417Z,2.45
2023-04-09T02:50:37.848Z,2.48
2023-04-09T02:53:35.667Z,2.50
2023-04-09T02:56:04.691Z,2.52
2023-04-09T02:58:40.868Z,2.52
2023-04-09T03:01:09.340Z,2.54
2023-04-09T03:03:40.480Z,2.56
2023-04-09T03:06:12.121Z,2.55
2023-04-09T03:08:40.852Z,2.55
2023-04-09T03:11:12.320Z,2.56
2023-04-09T03:13:56.524Z,2.54
2023-04-09T03:16:26.671Z,2.54
2023-04-09T03:18:55.067Z,2.53
2023-04-09T03:21:25.838Z,2.52
2023-04-09T03:23:57.143Z,2.53
2023-04-09T03:26:25.893Z,2.52
2023-04-09T03:28:57.223Z,2.50
2023-04-09T03:31:26.270Z,2.47
2023-04-09T03:33:57.644Z,2.39
2023-04-09T03:36:28.569Z,2.30
2023-04-09T03:39:11.767Z,2.25
2023-04-09T03:41:46.651Z,2.20
2023-04-09T03:44:14.965Z,2.17
2023-04-09T03:46:43.424Z,2.15
2023-04-09T03:49:11.743Z,2.15
2023-04-09T03:51:40.110Z,2.17
2023-04-09T03:54:09.102Z,2.19
2023-04-09T03:56:37.536Z,2.22
2023-04-09T03:59:17.410Z,2.25
2023-04-09T04:01:46.137Z,2.30
2023-04-09T04:04:17.324Z,2.33
2023-04-09T04:06:45.924Z,2.36
2023-04-09T04:09:19.431Z,2.38
2023-04-09T04:11:51.610Z,2.42
2023-04-09T04:14:22.578Z,2.45
2023-04-09T04:16:54.488Z,2.45
2023-04-09T04:19:22.894Z,2.46
2023-04-09T04:21:51.229Z,2.47
2023-04-09T04:24:19.995Z,2.49
2023-04-09T04:26:51.370Z,2.54
2023-04-09T04:29:22.519Z,2.57
2023-04-09T04:31:54.519Z,2.61
2023-04-09T04:34:25.777Z,2.63
2023-04-09T04:36:54.410Z,2.66
2023-04-09T04:39:23.073Z,2.70
2023-04-09T04:41:52.079Z,2.73
2023-04-09T04:44:21.043Z,2.75
2023-04-09T04:46:50.725Z,2.78
2023-04-09T04:49:19.198Z,2.80
2023-04-09T04:51:47.909Z,2.78
2023-04-09T04:54:17.021Z,2.75
2023-04-09T04:56:52.755Z,2.72
2023-04-09T04:59:21.166Z,2.69
2023-04-09T05:01:49.905Z,2.66
2023-04-09T05:04:19.609Z,2.63
2023-04-09T05:07:02.592Z,2.60
2023-04-09T05:09:31.291Z,2.60
2023-04-09T05:12:03.380Z,2.61
2023-04-09T05:14:41.366Z,2.64
2023-04-09T05:17:12.185Z,2.69
2023-04-09T05:19:40.771Z,2.72
2023-04-09T05:22:09.579Z,2.75
2023-04-09T05:24:37.829Z,2.80
2023-04-09T05:27:19.644Z,2.86
2023-04-09T05:29:48.985Z,2.95
2023-04-09T05:32:20.794Z,3.02
2023-04-09T05:34:49.151Z,3.07
2023-04-09T05:37:17.350Z,3.12
2023-04-09T05:39:48.503Z,3.15
2023-04-09T05:42:17.597Z,3.16
2023-04-09T05:44:51.502Z,3.20
2023-04-09T05:47:20.424Z,3.24
2023-04-09T05:49:57.739Z,3.27
2023-04-09T05:52:27.093Z,3.27
2023-04-09T05:55:01.348Z,3.25
2023-04-09T05:57:32.461Z,3.26
2023-04-09T06:00:01.344Z,3.24
2023-04-09T06:02:33.064Z,3.19
2023-04-09T06:05:02.183Z,3.18
2023-04-09T06:07:53.667Z,3.16
2023-04-09T06:10:22.577Z,3.14
2023-04-09T06:13:00.307Z,3.15
2023-04-09T06:15:29.293Z,3.17
2023-04-09T06:18:00.367Z,3.19
2023-04-09T06:20:29.086Z,3.18
2023-04-09T06:22:57.397Z,3.19
2023-04-09T06:25:26.412Z,3.20
2023-04-09T06:27:58.118Z,3.19
2023-04-09T06:30:39.382Z,3.20
2023-04-09T06:33:13.417Z,3.31
2023-04-09T06:35:44.697Z,3.39
2023-04-09T06:38:13.493Z,3.44
2023-04-09T06:40:42.544Z,3.48
2023-04-09T06:43:11.518Z,3.51
2023-04-09T06:45:50.101Z,3.50
2023-04-09T06:48:18.511Z,3.52
2023-04-09T06:50:47.395Z,3.52
2023-04-09T06:53:16.556Z,3.57
2023-04-09T06:55:48.324Z,3.63
2023-04-09T06:58:17.296Z,3.68
2023-04-09T07:00:45.727Z,3.74
2023-04-09T07:03:16.307Z,3.82
2023-04-09T07:05:45.556Z,3.88
2023-04-09T07:08:17.488Z,3.93
2023-04-09T07:10:47.654Z,4.00
2023-04-09T07:13:33.727Z,4.07
2023-04-09T07:16:02.289Z,4.11
2023-04-09T07:18:31.436Z,4.11
2023-04-09T07:21:02.703Z,4.09
2023-04-09T07:24:22.659Z,4.06
2023-04-09T07:26:54.026Z,4.05
2023-04-09T07:29:22.808Z,4.00
2023-04-09T07:31:52.429Z,3.98
2023-04-09T07:34:31.108Z,3.99
2023-04-09T07:37:03.307Z,4.01
2023-04-09T07:39:52.000Z,4.02
2023-04-09T07:42:59.735Z,4.06
2023-04-09T07:45:31.229Z,4.12
2023-04-09T07:48:13.030Z,4.17
2023-04-09T07:50:45.394Z,4.23
2023-04-09T07:53:14.559Z,4.28
2023-04-09T07:55:51.659Z,4.31
2023-04-09T07:58:20.363Z,4.34
2023-04-09T08:00:51.755Z,4.33
2023-04-09T08:03:23.001Z,4.27
2023-04-09T08:05:52.082Z,4.28
2023-04-09T08:08:21.976Z,4.28
2023-04-09T08:10:50.942Z,4.28
2023-04-09T08:13:20.844Z,4.31
2023-04-09T08:15:53.341Z,4.34
2023-04-09T08:18:33.343Z,4.36
2023-04-09T08:21:06.311Z,4.35
2023-04-09T08:24:10.213Z,4.35
2023-04-09T08:26:58.107Z,4.40
2023-04-09T08:29:32.222Z,4.45
2023-04-09T08:32:02.962Z,4.53
2023-04-09T08:34:31.694Z,4.56
2023-04-09T08:37:06.622Z,4.56
2023-04-09T08:39:37.916Z,4.60
2023-04-09T08:42:07.462Z,4.69
2023-04-09T08:44:41.769Z,4.74
2023-04-09T08:47:14.788Z,4.76
2023-04-09T08:49:59.559Z,4.75
2023-04-09T08:52:35.498Z,4.83
2023-04-09T08:55:03.802Z,4.94
2023-04-09T08:57:37.883Z,5.00
2023-04-09T09:00:08.222Z,5.03
2023-04-09T09:02:36.824Z,5.01
2023-04-09T09:05:06.882Z,4.93
2023-04-09T09:08:13.567Z,4.88
2023-04-09T09:10:44.504Z,4.88
2023-04-09T09:13:23.159Z,4.92
2023-04-09T09:15:55.478Z,4.93
2023-04-09T09:18:39.368Z,5.01
2023-04-09T09:21:15.987Z,5.09
2023-04-09T09:23:46.157Z,5.16
2023-04-09T09:26:16.711Z,5.23
2023-04-09T09:28:49.733Z,5.32
2023-04-09T09:31:20.308Z,5.47
2023-04-09T09:33:49.346Z,5.62
2023-04-09T09:36:34.869Z,5.77
2023-04-09T09:39:10.577Z,5.88
2023-04-09T09:41:43.631Z,5.95
2023-04-09T09:44:31.384Z,6.02
2023-04-09T09:47:01.051Z,6.07
2023-04-09T09:49:30.188Z,6.11
2023-04-09T09:52:03.183Z,6.18
2023-04-09T09:54:42.768Z,6.26
2023-04-09T09:57:13.905Z,6.31
2023-04-09T09:59:44.438Z,6.37
2023-04-09T10:02:19.661Z,6.38
2023-04-09T10:04:53.049Z,6.48
2023-04-09T10:07:24.146Z,6.60
2023-04-09T10:09:56.802Z,6.73
2023-04-09T10:12:26.538Z,6.85
2023-04-09T10:15:06.365Z,6.93
2023-04-09T10:17:37.216Z,6.95
2023-04-09T10:20:19.131Z,6.99
2023-04-09T10:22:53.129Z,7.03
2023-04-09T10:25:22.549Z,7.06
2023-04-09T10:28:02.512Z,7.13
2023-04-09T10:30:35.403Z,7.24
2023-04-09T10:33:26.536Z,7.21
2023-04-09T10:36:00.105Z,7.12
2023-04-09T10:38:58.164Z,7.20
2023-04-09T10:41:38.536Z,7.36
2023-04-09T10:44:38.393Z,7.38
2023-04-09T10:47:07.054Z,7.47
2023-04-09T10:49:45.052Z,7.61
2023-04-09T10:52:16.025Z,7.64
2023-04-09T10:54:46.553Z,7.69
2023-04-09T10:57:18.312Z,7.80
2023-04-09T10:59:56.413Z,7.87
2023-04-09T11:02:59.756Z,7.86
2023-04-09T11:05:35.799Z,7.91
2023-04-09T11:08:14.506Z,8.02
2023-04-09T11:10:51.894Z,8.04
2023-04-09T11:13:31.433Z,8.18
2023-04-09T11:16:01.615Z,8.43
2023-04-09T11:18:41.383Z,8.57
2023-04-09T11:21:17.362Z,8.68
2023-04-09T11:23:52.816Z,8.77
2023-04-09T11:26:47.399Z,8.81
2023-04-09T11:29:15.801Z,8.88
2023-04-09T11:31:53.525Z,8.96
2023-04-09T11:34:28.275Z,8.93
2023-04-09T11:36:59.318Z,9.00
2023-04-09T11:39:31.194Z,9.11
2023-04-09T11:42:12.492Z,9.27
2023-04-09T11:44:50.540Z,9.37
2023-04-09T11:47:23.709Z,9.45
2023-04-09T11:49:52.018Z,9.40
2023-04-09T11:52:20.915Z,9.43
2023-04-09T11:54:52.743Z,9.41
2023-04-09T11:57:24.472Z,9.44
2023-04-09T12:00:25.382Z,9.45
2023-04-09T12:03:22.111Z,9.31
2023-04-09T12:05:51.335Z,9.34
2023-04-09T12:08:24.544Z,9.58
2023-04-09T12:10:53.908Z,9.92
2023-04-09T12:13:22.462Z,10.29
2023-04-09T12:15:51.658Z,10.69
2023-04-09T12:18:23.563Z,11.06
2023-04-09T12:20:51.852Z,11.39
2023-04-09T12:23:20.310Z,11.48
2023-04-09T12:25:51.443Z,11.60
2023-04-09T12:28:23.377Z,11.63
2023-04-09T12:30:51.956Z,11.66
2023-04-09T12:33:44.062Z,11.58
2023-04-09T12:36:12.654Z,11.44
2023-04-09T12:38:41.210Z,11.32
2023-04-09T12:41:09.788Z,11.34
2023-04-09T12:43:38.916Z,11.32
2023-04-09T12:46:07.597Z,11.28
2023-04-09T12:48:43.465Z,11.19
2023-04-09T12:51:21.098Z,11.12
2023-04-09T12:53:50.067Z,11.06
2023-04-09T12:56:18.636Z,10.99
2023-04-09T12:58:54.433Z,11.01
2023-04-09T13:01:23.050Z,11.02
2023-04-09T13:03:52.202Z,10.99
2023-04-09T13:06:41.781Z,10.97
2023-04-09T13:09:10.032Z,10.99
2023-04-09T13:11:41.021Z,11.04
2023-04-09T13:14:13.677Z,11.06
2023-04-09T13:16:42.038Z,11.11
2023-04-09T13:19:10.794Z,11.13
2023-04-09T13:21:39.846Z,11.08
2023-04-09T13:24:09.765Z,11.02
2023-04-09T13:26:38.609Z,10.96
2023-04-09T13:29:08.403Z,10.91
2023-04-09T13:31:37.456Z,10.85
2023-04-09T13:34:06.681Z,10.79
2023-04-09T13:36:34.907Z,10.80
2023-04-09T13:39:06.191Z,10.83
2023-04-09T13:41:34.512Z,10.85
2023-04-09T13:44:04.728Z,10.87
2023-04-09T13:46:33.753Z,10.87
2023-04-09T13:49:13.188Z,10.86
2023-04-09T13:52:02.155Z,10.88
2023-04-09T13:54:31.216Z,10.93
2023-04-09T13:57:08.775Z,10.95
2023-04-09T13:59:45.999Z,10.96
2023-04-09T14:02:14.929Z,11.03
2023-04-09T14:04:43.760Z,11.08
2023-04-09T14:07:12.188Z,11.14
2023-04-09T14:09:41.253Z,11.24
2023-04-09T14:12:09.553Z,11.26
2023-04-09T14:14:38.152Z,11.24
2023-04-09T14:17:06.783Z,11.18
2023-04-09T14:19:39.569Z,11.13
2023-04-09T14:22:09.133Z,11.10
2023-04-09T14:24:40.302Z,11.08
2023-04-09T14:27:09.766Z,11.08
2023-04-09T14:29:38.249Z,11.04
2023-04-09T14:32:06.643Z,10.97
2023-04-09T14:34:35.419Z,10.97
2023-04-09T14:37:06.511Z,10.98
2023-04-09T14:39:56.201Z,10.97
2023-04-09T14:42:24.602Z,10.87
2023-04-09T14:44:53.360Z,10.80
2023-04-09T14:47:21.680Z,10.75
2023-04-09T14:49:50.244Z,10.71
2023-04-09T14:52:22.037Z,10.66
2023-04-09T14:54:51.199Z,10.64
2023-04-09T14:57:19.601Z,10.63
2023-04-09T14:59:48.199Z,10.64
2023-04-09T15:02:17.718Z,10.64
2023-04-09T15:04:46.505Z,10.65
2023-04-09T15:07:15.751Z,10.61
2023-04-09T15:10:07.539Z,10.60
2023-04-09T15:12:39.082Z,10.59
2023-04-09T15:15:08.800Z,10.57
2023-04-09T15:18:00.351Z,10.58
2023-04-09T15:20:29.972Z,10.57
2023-04-09T15:23:10.919Z,10.58
2023-04-09T15:26:43.380Z,10.57
2023-04-09T15:29:32.495Z,10.56
2023-04-09T15:32:21.722Z,10.57
2023-04-09T15:34:53.404Z,10.56
2023-04-09T15:37:21.593Z,10.51
2023-04-09T15:40:33.526Z,10.48
2023-04-09T15:43:01.739Z,10.49
2023-04-09T15:45:30.865Z,10.50
2023-04-09T15:47:59.336Z,10.49
2023-04-09T15:50:27.653Z,10.47
2023-04-09T15:52:56.314Z,10.45
2023-04-09T15:55:26.580Z,10.43
2023-04-09T15:57:55.277Z,10.38
2023-04-09T16:00:27.013Z,10.34
2023-04-09T16:02:55.547Z,10.29
2023-04-09T16:05:24.077Z,10.22
2023-04-09T16:07:52.483Z,10.13
2023-04-09T16:10:21.540Z,10.07
2023-04-09T16:12:52.740Z,10.04
2023-04-09T16:15:21.305Z,10.01
2023-04-09T16:17:50.161Z,9.97
2023-04-09T16:20:18.749Z,9.92
2023-04-09T16:22:47.247Z,9.88
2023-04-09T16:25:15.491Z,9.82
2023-04-09T16:27:43.602Z,9.73
2023-04-09T16:30:12.918Z,9.69
2023-04-09T16:32:48.982Z,9.66
2023-04-09T16:35:19.170Z,9.65
2023-04-09T16:37:48.251Z,9.61
2023-04-09T16:40:18.736Z,9.58
2023-04-09T16:42:47.490Z,9.54
2023-04-09T16:45:16.099Z,9.53
2023-04-09T16:47:54.812Z,9.51
2023-04-09T16:50:23.678Z,9.50
2023-04-09T16:53:15.501Z,9.48
2023-04-09T16:55:45.242Z,9.48
2023-04-09T16:58:13.498Z,9.48
2023-04-09T17:00:46.933Z,9.48
2023-04-09T17:03:23.873Z,9.47
2023-04-09T17:05:59.706Z,9.45
2023-04-09T17:08:28.407Z,9.43
2023-04-09T17:11:17.951Z,9.40
2023-04-09T17:13:47.235Z,9.37
2023-04-09T17:16:23.064Z,9.33
2023-04-09T17:18:51.699Z,9.28
2023-04-09T17:21:20.623Z,9.23
2023-04-09T17:23:50.291Z,9.18
2023-04-09T17:26:22.040Z,9.11
2023-04-09T17:29:13.842Z,9.03
2023-04-09T17:31:48.934Z,8.94
2023-04-09T17:34:17.755Z,8.87
2023-04-09T17:36:50.503Z,8.81
2023-04-09T17:39:21.289Z,8.74
2023-04-09T17:42:12.081Z,8.67
2023-04-09T17:44:41.416Z,8.57
2023-04-09T17:47:12.509Z,8.50
2023-04-09T17:50:01.695Z,8.43
2023-04-09T17:52:36.828Z,8.34
2023-04-09T17:55:13.181Z,8.22
2023-04-09T17:57:56.826Z,8.13
2023-04-09T18:00:28.676Z,8.01
2023-04-09T18:03:09.096Z,7.94
2023-04-09T18:05:39.524Z,7.87
2023-04-09T18:08:08.713Z,7.81
2023-04-09T18:10:38.064Z,7.74
2023-04-09T18:13:06.542Z,7.68
2023-04-09T18:15:36.454Z,7.62
2023-04-09T18:18:04.813Z,7.53
2023-04-09T18:20:33.534Z,7.46
2023-04-09T18:23:02.138Z,7.42
2023-04-09T18:25:30.904Z,7.37
2023-04-09T18:28:02.397Z,7.33
2023-04-09T18:30:31.401Z,7.32
2023-04-09T18:33:00.109Z,7.29
2023-04-09T18:35:28.693Z,7.27
2023-04-09T18:38:40.925Z,7.24
2023-04-09T18:41:11.525Z,7.20
2023-04-09T18:43:42.634Z,7.15
2023-04-09T18:46:11.089Z,7.11
2023-04-09T18:48:39.513Z,7.08
2023-04-09T18:51:31.340Z,7.05
2023-04-09T18:54:12.882Z,7.03
2023-04-09T18:56:41.282Z,6.98
2023-04-09T18:59:10.226Z,6.95
2023-04-09T19:01:39.204Z,6.92
2023-04-09T19:04:07.981Z,6.89
2023-04-09T19:06:52.825Z,6.84
2023-04-09T19:09:21.773Z,6.79
2023-04-09T19:11:51.014Z,6.73
2023-04-09T19:14:19.380Z,6.72
2023-04-09T19:17:08.638Z,6.70
2023-04-09T19:19:37.532Z,6.69
2023-04-09T19:22:30.105Z,6.62
2023-04-09T19:24:58.444Z,6.57
2023-04-09T19:27:27.075Z,6.54
2023-04-09T19:30:01.323Z,6.48
2023-04-09T19:32:29.893Z,6.42
2023-04-09T19:35:50.281Z,6.38
2023-04-09T19:38:19.798Z,6.33
2023-04-09T19:40:48.249Z,6.32
2023-04-09T19:43:47.571Z,6.29
2023-04-09T19:46:38.975Z,6.23
2023-04-09T19:49:08.121Z,6.16
2023-04-09T19:51:36.637Z,6.07
2023-04-09T19:54:05.580Z,6.00
2023-04-09T19:56:38.365Z,5.94
2023-04-09T19:59:07.981Z,5.88
2023-04-09T20:01:36.880Z,5.83
2023-04-09T20:04:25.677Z,5.78
2023-04-09T20:07:15.614Z,5.74
2023-04-09T20:10:07.709Z,5.71
2023-04-09T20:12:43.134Z,5.66
2023-04-09T20:15:11.907Z,5.64
2023-04-09T20:17:42.008Z,5.60
2023-04-09T20:20:10.951Z,5.57
2023-04-09T20:22:56.499Z,5.53
2023-04-09T20:25:25.900Z,5.54
2023-04-09T20:27:57.533Z,5.53
2023-04-09T20:30:26.190Z,5.55
2023-04-09T20:32:54.736Z,5.53
2023-04-09T20:35:23.058Z,5.51
2023-04-09T20:37:51.942Z,5.51
2023-04-09T20:40:21.326Z,5.52
2023-04-09T20:42:50.106Z,5.56
2023-04-09T20:45:22.044Z,5.59
2023-04-09T20:47:51.091Z,5.64
2023-04-09T20:50:19.973Z,5.68
2023-04-09T20:52:49.770Z,5.73
2023-04-09T20:55:18.170Z,5.78
2023-04-09T20:57:49.985Z,5.80
2023-04-09T21:00:19.174Z,5.83
2023-04-09T21:02:49.430Z,5.86
2023-04-09T21:05:23.448Z,5.89
2023-04-09T21:07:53.125Z,5.92
2023-04-09T21:10:21.840Z,5.93
2023-04-09T21:12:52.737Z,5.94
2023-04-09T21:15:21.364Z,5.98
2023-04-09T21:17:49.682Z,6.00
2023-04-09T21:20:18.441Z,6.03
2023-04-09T21:22:56.448Z,6.08
2023-04-09T21:25:33.817Z,6.12
2023-04-09T21:28:02.741Z,6.16
2023-04-09T21:30:32.416Z,6.18
2023-04-09T21:33:09.751Z,6.22
2023-04-09T21:35:38.355Z,6.25
2023-04-09T21:38:07.656Z,6.27
2023-04-09T21:40:36.131Z,6.28
2023-04-09T21:43:05.020Z,6.31
2023-04-09T21:45:41.000Z,6.32
2023-04-09T21:48:09.968Z,6.32
2023-04-09T21:50:39.115Z,6.33
2023-04-09T21:53:08.442Z,6.34
2023-04-09T21:55:37.604Z,6.37
2023-04-09T21:58:07.306Z,6.38
2023-04-09T22:00:36.223Z,6.41
2023-04-09T22:03:04.982Z,6.43
2023-04-09T22:05:37.065Z,6.45
2023-04-09T22:08:06.308Z,6.47
2023-04-09T22:10:35.194Z,6.47
2023-04-09T22:13:05.040Z,6.45
2023-04-09T22:15:43.596Z,6.44
2023-04-09T22:18:13.265Z,6.45
2023-04-09T22:21:01.925Z,6.49
2023-04-09T22:23:32.146Z,6.50
2023-04-09T22:26:05.677Z,6.49
2023-04-09T22:28:38.651Z,6.46
2023-04-09T22:31:10.753Z,6.44
2023-04-09T22:33:42.781Z,6.45
2023-04-09T22:36:19.561Z,6.49
2023-04-09T22:39:04.708Z,6.51
2023-04-09T22:41:33.422Z,6.47
2023-04-09T22:44:22.192Z,6.45
2023-04-09T22:47:13.820Z,6.43
2023-04-09T22:50:03.388Z,6.41
2023-04-09T22:52:37.772Z,6.39
2023-04-09T22:55:37.658Z,6.36
2023-04-09T22:58:28.896Z,6.26
2023-04-09T23:01:00.461Z,6.16
2023-04-09T23:03:30.142Z,6.06
2023-04-09T23:06:12.171Z,5.99
2023-04-09T23:08:41.201Z,5.91
2023-04-09T23:11:38.849Z,5.77
2023-04-09T23:14:30.729Z,5.59
2023-04-09T23:16:59.251Z,5.45
2023-04-09T23:19:28.174Z,5.32
2023-04-09T23:21:56.958Z,5.23
2023-04-09T23:24:48.705Z,5.14
2023-04-09T23:27:17.801Z,5.05
2023-04-09T23:29:49.617Z,4.94
2023-04-09T23:32:17.880Z,4.85
2023-04-09T23:34:46.618Z,4.77
2023-04-09T23:37:19.263Z,4.69
2023-04-09T23:39:48.406Z,4.62
2023-04-09T23:42:51.432Z,4.58
2023-04-09T23:45:23.752Z,4.52
2023-04-09T23:48:02.492Z,4.46
2023-04-09T23:50:39.769Z,4.39
2023-04-09T23:53:11.155Z,4.32
2023-04-09T23:56:03.002Z,4.22
2023-04-09T23:58:34.388Z,4.15
